Latest Weather Observations for Moss Vale

IDN60801

Issued at 6:32 am EST Wednesday 22 May 2019 (issued every 10 minutes, with the page automatically refreshed every 10 minutes)

About weather observations | Map of weather stations | Latest weather observations for NSW | Other Formats
Station Details ID: 068239 Name: MOSS VALE AWS Lat: -34.53 Lon: 150.42 Height: 678.4 m
Data from the previous 72 hours. | See also: Recent months at Moss Vale
Date/Time
EST
Temp
°C
App
Temp
°C
Dew
Point
°C
Rel
Hum
%
Delta-T
°C
Wind Press
QNH
hPa
Press
MSL
hPa
Rain since
9am
mm
Dir  Spd
km/h
Gust
km/h
Spd
kts
Gust
kts
22/06:30am 6.0 3.6 5.1 94 0.4 NW 7 9 4 5 1028.3 1028.3 0.0
22/06:00am 6.8 5.4 5.7 93 0.5 WNW 2 6 1 3 1027.9 1027.8 0.0
22/05:30am 7.2 5.1 6.0 92 0.6 WNW 6 7 3 4 1027.7 1027.6 0.0
22/05:00am 7.6 5.6 6.1 90 0.7 WNW 6 9 3 5 1027.5 1027.4 0.0
22/04:30am 7.9 7.1 6.5 91 0.7 CALM 0 6 0 3 1027.2 1027.2 0.0
22/04:00am 7.7 5.7 6.3 91 0.7 WNW 6 7 3 4 1027.1 1027.1 0.0
22/03:30am 7.5 5.5 6.1 91 0.7 W 6 7 3 4 1027.1 1027.1 0.0
22/03:00am 7.5 5.3 6.3 92 0.6 W 7 9 4 5 1027.1 1027.1 0.0
22/02:30am 7.8 6.6 6.4 91 0.7 W 2 7 1 4 1027.0 1027.0 0.0
22/02:00am 8.2 7.4 6.7 90 0.7 CALM 0 0 0 0 1026.9 1026.9 0.0
22/01:30am 7.9 7.0 6.0 88 0.9 CALM 0 0 0 0 1027.0 1027.0 0.0
22/01:00am 8.5 7.7 6.6 88 0.9 CALM 0 0 0 0 1027.0 1027.0 0.0
22/12:30am 8.5 7.7 6.5 87 1.0 CALM 0 0 0 0 1027.0 1027.0 0.0
22/12:00am 8.6 7.3 5.9 83 1.3 W 2 6 1 3 1027.0 1027.0 0.0
 
Date/Time
EST
Temp
°C
App
Temp
°C
Dew
Point
°C
Rel
Hum
%
Delta-T
°C
Wind Press
QNH
hPa
Press
MSL
hPa
Rain since
9am
mm
Dir  Spd
km/h
Gust
km/h
Spd
kts
Gust
kts
21/11:30pm 9.0 6.8 6.4 84 1.3 WNW 7 9 4 5 1027.0 1027.0 0.0
21/11:00pm 9.1 7.5 6.2 82 1.4 NW 4 7 2 4 1027.2 1027.2 0.0
21/10:30pm 9.9 8.4 6.8 81 1.5 NW 4 6 2 3 1027.1 1027.1 0.0
21/10:00pm 11.0 8.7 7.3 78 1.8 N 9 9 5 5 1027.4 1027.3 0.0
21/09:30pm 12.2 11.7 7.7 74 2.3 CALM 0 0 0 0 1027.2 1027.2 0.0
21/09:00pm 12.1 11.5 7.6 74 2.3 CALM 0 0 0 0 1027.2 1027.2 0.0
21/08:30pm 11.9 10.5 7.4 74 2.3 NW 4 7 2 4 1027.0 1027.0 0.0
21/08:00pm 13.8 11.5 7.6 66 3.1 WNW 9 13 5 7 1026.9 1026.9 0.0
21/07:30pm 14.3 12.6 7.6 64 3.4 W 6 6 3 3 1026.8 1026.8 0.0
21/07:00pm 15.2 13.3 7.7 61 3.9 WSW 7 9 4 5 1026.7 1026.6 0.0
21/06:30pm 15.8 13.6 7.8 59 4.2 W 9 11 5 6 1026.6 1026.5 0.0
21/06:00pm 16.1 12.7 7.6 57 4.4 W 15 17 8 9 1026.2 1026.1 0.0
21/05:30pm 17.2 13.5 7.8 54 4.9 W 17 24 9 13 1025.9 1025.8 0.0
21/05:00pm 17.9 13.7 7.6 51 5.4 WNW 19 26 10 14 1025.3 1025.2 0.0
21/04:30pm 18.6 13.5 7.7 49 5.7 W 24 32 13 17 1025.1 1025.0 0.0
21/04:00pm 19.0 13.6 7.8 48 5.9 W 26 35 14 19 1024.9 1024.8 0.0
21/03:30pm 19.4 14.7 7.8 47 6.2 WNW 22 30 12 16 1024.6 1024.5 0.0
21/03:00pm 19.6 15.3 8.0 47 6.2 W 20 32 11 17 1024.6 1024.5 0.0
21/02:30pm 20.1 14.7 7.8 45 6.6 WNW 26 41 14 22 1024.3 1024.2 0.0
21/02:00pm 20.4 15.4 8.1 45 6.6 WNW 24 35 13 19 1024.5 1024.4 0.0
21/01:30pm 20.6 14.3 7.2 42 7.1 WNW 30 44 16 24 1024.5 1024.4 0.0
21/01:00pm 20.5 14.8 8.2 45 6.6 W 28 35 15 19 1024.7 1024.6 0.0
21/12:38pm 19.9 14.0 7.6 45 6.5 W 28 46 15 25 1024.8 1024.7 0.0
21/12:30pm 20.5 15.1 7.8 44 6.8 W 26 35 14 19 1025.1 1025.0 0.0
21/12:00pm 20.3 15.4 8.3 46 6.4 WNW 24 33 13 18 1025.4 1025.3 0.0
21/11:30am 19.6 13.9 8.3 48 6.1 WNW 28 43 15 23 1025.9 1025.8 0.0
21/11:00am 18.9 13.3 8.8 52 5.4 WNW 28 37 15 20 1026.2 1026.1 0.0
21/10:30am 18.2 12.6 8.7 54 5.1 W 28 35 15 19 1026.6 1026.5 0.0
21/10:00am 17.3 12.9 9.0 58 4.4 WNW 22 32 12 17 1026.7 1026.6 0.0
21/09:30am 16.1 12.9 9.8 66 3.4 WNW 17 26 9 14 1026.8 1026.8 0.0
21/09:00am 14.7 13.4 10.1 74 2.5 W 7 15 4 8 1026.8 1026.8 0.0
21/08:30am 12.2 11.8 9.6 84 1.4 ENE 2 6 1 3 1026.7 1026.6 0.0
21/08:00am 9.2 8.6 7.3 88 0.9 CALM 0 0 0 0 1026.4 1026.3 0.0
21/07:30am 7.6 5.7 6.7 94 0.4 WSW 6 7 3 4 1026.2 1026.1 0.0
21/07:00am 7.2 6.4 6.3 94 0.4 CALM 0 6 0 3 1026.0 1025.9 0.0
21/06:30am 8.1 5.9 6.4 89 0.8 W 7 11 4 6 1025.5 1025.5 0.0
21/06:00am 9.0 7.2 7.1 88 0.9 WNW 6 7 3 4 1025.3 1025.2 0.0
21/05:30am 8.6 6.7 6.7 88 0.9 WNW 6 9 3 5 1025.2 1025.1 0.0
21/05:00am 7.8 4.9 6.3 90 0.7 WNW 11 13 6 7 1025.0 1024.9 0.0
21/04:30am 6.9 4.7 6.3 96 0.3 WNW 7 9 4 5 1024.9 1024.8 0.0
21/04:00am 5.5 3.1 4.5 93 0.4 W 6 7 3 4 1025.0 1024.9 0.0
21/03:30am 6.5 3.1 5.8 95 0.3 WNW 13 15 7 8 1024.9 1024.8 0.0
21/03:25am 6.6 3.2 6.0 96 0.3 WNW 13 15 7 8 1024.9 1024.8 0.0
21/03:00am 5.0 2.0 4.0 93 0.4 W 9 9 5 5 1025.0 1024.9 0.0
21/02:53am 5.9 3.5 5.2 95 0.3 WSW 7 9 4 5 1025.1 1025.0 0.0
21/02:30am 7.0 5.8 6.6 97 0.2 S 2 6 1 3 1025.2 1025.1 0.0
21/02:00am 6.2 3.9 5.6 96 0.3 SE 7 7 4 4 1025.2 1025.1 0.0
21/01:57am 5.7 3.3 5.1 96 0.3 SE 7 7 4 4 1025.2 1025.1 0.0
21/01:30am 6.3 3.6 5.7 96 0.3 WNW 9 11 5 6 1025.2 1025.1 0.0
21/01:00am 6.3 4.2 5.6 95 0.3 NW 6 7 3 4 1025.4 1025.3 0.0
21/12:30am 7.2 5.3 6.6 96 0.3 NNE 6 9 3 5 1025.4 1025.3 0.0
21/12:00am 6.4 4.7 5.7 95 0.3 NE 4 9 2 5 1025.6 1025.6 0.0
 
Date/Time
EST
Temp
°C
App
Temp
°C
Dew
Point
°C
Rel
Hum
%
Delta-T
°C
Wind Press
QNH
hPa
Press
MSL
hPa
Rain since
9am
mm
Dir  Spd
km/h
Gust
km/h
Spd
kts
Gust
kts
20/11:30pm 8.2 6.5 7.6 96 0.3 NE 6 7 3 4 1025.8 1025.7 0.0
20/11:00pm 7.7 6.9 6.6 93 0.5 CALM 0 0 0 0 1026.1 1026.0 0.0
20/10:30pm 8.5 6.7 7.3 92 0.6 NE 6 6 3 3 1026.3 1026.2 0.0
20/10:11pm 9.4 8.3 8.5 94 0.5 NE 4 7 2 4 1026.3 1026.2 0.0
20/10:00pm 9.1 8.5 7.5 90 0.8 CALM 0 0 0 0 1026.3 1026.2 0.0
20/09:30pm 9.8 7.9 7.7 87 1.0 NE 7 9 4 5 1026.4 1026.3 0.0
20/09:00pm 10.9 9.3 8.7 86 1.1 NNE 7 9 4 5 1026.3 1026.2 0.0
20/08:30pm 10.8 9.1 8.4 85 1.2 NE 7 9 4 5 1026.2 1026.1 0.0
20/08:00pm 11.9 10.2 8.4 79 1.8 N 7 9 4 5 1026.0 1025.9 0.0
20/07:30pm 12.8 11.0 9.4 80 1.8 NNE 9 11 5 6 1025.9 1025.8 0.0
20/07:00pm 13.1 10.6 9.7 80 1.8 NNE 13 13 7 7 1025.8 1025.7 0.0
20/06:30pm 13.6 11.6 8.7 72 2.6 NE 9 11 5 6 1025.5 1025.5 0.0
20/06:00pm 13.6 11.3 5.5 58 3.9 NNW 7 9 4 5 1025.3 1025.2 0.0
20/05:30pm 15.9 13.6 5.5 50 5.2 NW 7 9 4 5 1025.1 1025.0 0.0
20/05:00pm 16.5 13.5 5.8 49 5.3 WNW 11 15 6 8 1024.9 1024.8 0.0
20/04:30pm 17.1 13.3 6.0 48 5.6 W 15 20 8 11 1024.7 1024.6 0.0
20/04:00pm 17.4 14.6 6.9 50 5.4 W 11 17 6 9 1024.7 1024.6 0.0
20/03:30pm 18.2 13.7 6.1 45 6.2 WNW 19 26 10 14 1024.7 1024.6 0.0
20/03:00pm 17.9 13.7 5.8 45 6.1 WNW 17 28 9 15 1024.8 1024.7 0.0
20/02:30pm 19.3 15.0 7.1 45 6.4 WNW 19 32 10 17 1024.8 1024.7 0.0
20/02:00pm 18.1 14.3 6.0 45 6.1 WNW 15 20 8 11 1025.0 1024.9 0.0
20/01:30pm 18.1 14.2 7.2 49 5.7 WNW 17 20 9 11 1025.3 1025.2 0.0
20/01:00pm 17.7 13.5 7.4 51 5.3 W 19 28 10 15 1025.8 1025.7 0.0
20/12:30pm 17.9 15.2 7.3 50 5.5 WNW 11 19 6 10 1026.2 1026.1 0.0
20/12:00pm 17.0 14.9 8.2 56 4.6 WNW 9 11 5 6 1026.7 1026.6 0.0
20/11:30am 16.3 13.9 8.8 61 4.0 W 11 17 6 9 1027.2 1027.2 0.0
20/11:00am 15.8 13.0 8.5 62 3.8 W 13 17 7 9 1027.9 1027.8 0.0
20/10:30am 15.6 13.0 7.9 60 4.0 NW 11 13 6 7 1028.2 1028.2 0.0
20/10:00am 13.5 13.1 9.7 78 2.0 W 2 6 1 3 1028.5 1028.5 0.0
20/09:30am 11.6 11.9 10.8 95 0.4 CALM 0 0 0 0 1028.5 1028.5 0.0
20/09:00am 10.6 10.7 10.1 97 0.3 CALM 0 0 0 0 1028.6 1028.6 0.2
20/08:32am 8.5 8.0 7.9 96 0.3 CALM 0 0 0 0 1028.7 1028.7 0.2
20/08:30am 8.5 8.1 8.1 97 0.2 CALM 0 0 0 0 1028.7 1028.7 0.2
20/08:00am 8.5 8.1 8.1 97 0.2 CALM 0 0 0 0 1028.6 1028.6 0.2
20/07:30am 8.9 8.6 8.5 97 0.2 CALM 0 0 0 0 1028.2 1028.2 0.2
20/07:00am 8.2 7.3 7.8 97 0.2 N 2 7 1 4 1028.1 1028.1 0.2
20/06:30am 7.6 6.1 7.0 96 0.3 NE 4 6 2 3 1028.2 1028.2 0.0
20/06:00am 8.3 7.8 7.7 96 0.3 CALM 0 0 0 0 1028.2 1028.2 0.0
20/05:30am 9.4 9.1 8.8 96 0.3 CALM 0 0 0 0 1028.1 1028.1 0.0
20/05:00am 9.0 8.6 8.1 94 0.4 CALM 0 0 0 0 1028.1 1028.1 0.0
20/04:37am 9.4 8.9 8.0 91 0.7 CALM 0 0 0 0 1028.1 1028.1 0.0
20/04:34am 10.3 10.2 9.4 94 0.5 CALM 0 0 0 0 1028.0 1028.0 0.0
20/04:30am 10.5 10.5 9.7 95 0.4 CALM 0 0 0 0 1028.1 1028.1 0.0
20/04:00am 11.0 10.4 10.4 96 0.3 WNW 4 6 2 3 1028.2 1028.2 0.0
20/03:30am 10.5 8.6 9.1 91 0.7 NNW 9 11 5 6 1028.2 1028.2 0.0
20/03:27am 11.0 9.7 9.9 93 0.6 NNW 7 11 4 6 1028.2 1028.2 0.0
20/03:00am 10.3 8.4 8.9 91 0.7 NW 9 11 5 6 1028.4 1028.4 0.0
20/02:30am 11.5 10.4 10.6 94 0.5 NNW 7 9 4 5 1028.5 1028.5 0.0
20/02:00am 11.1 9.9 10.2 94 0.5 N 7 9 4 5 1028.6 1028.6 0.0
20/01:30am 11.4 9.5 10.5 94 0.5 NNW 11 15 6 8 1028.9 1028.8 0.0
20/01:00am 11.4 10.5 10.6 95 0.4 NW 6 9 3 5 1028.9 1028.8 0.0
20/12:30am 11.3 10.6 10.2 93 0.6 SSE 4 7 2 4 1029.0 1028.9 0.0
20/12:00am 11.6 10.4 10.3 92 0.7 NNE 7 11 4 6 1029.3 1029.3 0.0
 
Date/Time
EST
Temp
°C
App
Temp
°C
Dew
Point
°C
Rel
Hum
%
Delta-T
°C
Wind Press
QNH
hPa
Press
MSL
hPa
Rain since
9am
mm
Dir  Spd
km/h
Gust
km/h
Spd
kts
Gust
kts
19/11:30pm 11.9 10.4 10.6 92 0.7 NNE 9 17 5 9 1029.5 1029.5 0.0
19/11:00pm 12.1 9.5 10.7 91 0.7 N 15 20 8 11 1029.6 1029.6 0.0
19/10:30pm 12.0 8.9 10.4 90 0.9 NNE 17 22 9 12 1029.6 1029.6 0.0
19/10:00pm 12.0 8.5 10.2 89 1.0 NNE 19 24 10 13 1029.8 1029.8 0.0
19/09:30pm 12.3 9.7 10.7 90 0.9 NNE 15 22 8 12 1029.8 1029.8 0.0
19/09:00pm 11.9 8.9 10.5 91 0.7 NNE 17 19 9 10 1029.9 1029.9 0.0
19/08:30pm 11.7 9.3 9.9 89 1.0 NNE 13 19 7 10 1029.9 1029.9 0.0
19/08:00pm 12.2 9.9 10.3 88 1.0 NNE 13 17 7 9 1029.8 1029.8 0.0
19/07:30pm 12.4 9.2 10.1 86 1.2 NE 17 20 9 11 1029.7 1029.7 0.0
19/07:00pm 12.7 8.8 10.8 88 1.0 NE 22 26 12 14 1029.5 1029.5 0.0
19/06:30pm 12.3 9.9 10.2 87 1.1 NE 13 17 7 9 1029.5 1029.5 0.0
19/06:00pm 12.7 10.1 10.8 88 1.0 NE 15 20 8 11 1029.2 1029.1 0.0
19/05:30pm 13.2 10.0 11.1 87 1.1 NE 19 24 10 13 1029.1 1029.0 0.0
19/05:00pm 13.7 11.6 11.0 84 1.5 NE 13 17 7 9 1029.2 1029.1 0.0
19/04:30pm 14.7 11.8 9.7 72 2.7 NE 15 19 8 10 1029.1 1029.0 0.0
19/04:00pm 15.8 11.9 9.5 66 3.4 NNE 20 28 11 15 1029.0 1028.9 0.0
19/03:30pm 16.9 13.0 9.3 61 4.1 NNE 20 26 11 14 1029.0 1028.9 0.0
19/03:00pm 17.2 13.5 10.1 63 3.9 NE 20 24 11 13 1029.2 1029.1 0.0
19/02:30pm 16.5 13.1 9.2 62 3.9 NNE 17 22 9 12 1029.3 1029.3 0.0
19/02:00pm 17.1 13.5 8.5 57 4.5 N 17 24 9 13 1029.4 1029.4 0.0
19/01:30pm 16.2 12.5 9.4 64 3.7 NE 19 24 10 13 1029.9 1029.9 0.0
19/01:00pm 17.1 14.2 9.5 61 4.1 N 15 26 8 14 1030.2 1030.2 0.0
19/12:30pm 16.9 13.4 10.1 64 3.7 NNE 19 24 10 13 1030.6 1030.6 0.0
19/12:00pm 16.4 13.2 9.8 65 3.6 NNE 17 26 9 14 1030.9 1030.9 0.0
19/11:30am 16.0 12.8 9.9 67 3.3 NE 17 24 9 13 1031.3 1031.3 0.0
19/11:00am 14.8 11.2 9.8 72 2.7 NNE 19 24 10 13 1031.8 1031.9 0.0
19/10:30am 13.3 11.9 11.0 86 1.3 N 9 13 5 7 1032.4 1032.4 0.0
19/10:00am 13.0 13.1 12.7 98 0.2 NE 4 9 2 5 1032.6 1032.6 0.0
19/09:48am 12.6 13.3 12.3 98 0.2 CALM 0 6 0 3 1032.7 1032.7 0.0
19/09:30am 11.0 11.2 10.7 98 0.2 CALM 0 0 0 0 1032.9 1032.9 0.0
19/09:00am 9.8 8.4 9.5 98 0.2 NNW 7 7 4 4 1032.8 1032.8 0.2
19/08:30am 9.3 8.3 9.0 98 0.2 NE 4 7 2 4 1032.6 1032.6 0.2
19/08:00am 9.1 8.8 8.8 98 0.2 CALM 0 0 0 0 1032.6 1032.6 0.2
19/07:30am 8.9 7.4 8.6 98 0.2 SW 6 7 3 4 1032.3 1032.3 0.2
19/07:00am 8.9 7.3 8.6 98 0.2 NW 7 9 4 5 1032.4 1032.4 0.2

Other formats

Comma delimited format used in spreadsheet applications
http://www.bom.gov.au/fwo/IDN60801/IDN60801.94746.axf

JavaScript Object Notation format (JSON) in row-major order
http://www.bom.gov.au/fwo/IDN60801/IDN60801.94746.json

Data quality

Most of these data are generated automatically and are frequently updated. Quality checks on data are not normally performed. It is possible for incorrect values to appear. Refer to information at About Latest Weather Observations and please check the disclaimer before using these data.